EmailTwitter


Observations de surface / Royaume-Uni / EGLL (03772)

Régions: Québec | Canada | États-Unis | Europe | France | UK | Ailleurs
Station
Affichage
Infos & localisation pour EGLL (03772) | Aide pour décoder les METARs

Observations prises le 2020-07-14 à 06H20 UTC à LONDON/HEATHROW, UK (EGLL)

Température: 16.0 Celsius

Point de rosée: 15.0 Celsius

Humidité relative: 94%

Indice Humidex: 20.

Vents: Nord-ouest à 7 km/h ou 4 noeuds.

Pression au niveau moyen de la mer: 101.70 kilopascals.

Visibilité horizontale: 6.21 milles terrestres ou 9.94 kilomètres.

Observation METAR:

EGLL 140620Z AUTO 32004KT 9999 NCD 16/15 Q1017 NOSIG=